WetterOnline ( https://www.wetteronline.de )

Wetter aktuell Eschwege

Aktuelles Wetter: Leinefelde (356m)

6-stündlich | Neueste Meldungen
Ortszeit Temperatur Wetter
Do, 02.02. 7:00 2.8° C bedeckt
Do, 02.02. 1:00 3.0° C bewölkt
Mi, 01.02. 19:00 2.5° C bedeckt
Mi, 01.02. 13:00 4.5° C bewölkt
Mi, 01.02. 7:00 3.4° C leichter Regen
Mi, 01.02. 1:00 3.7° C bewölkt
Di, 31.01. 19:00 3.5° C Sprühregen
Di, 31.01. 13:00 3.0° C Sprühregen
Ortszeit Temperatur Wetter
Do, 02.02. 12:00 0.8° C leichter Schneefall
Do, 02.02. 11:50 0.8° C leichter Schneefall
Do, 02.02. 11:40 0.7° C leichter Schneefall
Do, 02.02. 11:30 0.4° C leichter Schneefall
Do, 02.02. 11:20 0.4° C leichter Schneefall
Do, 02.02. 11:10 0.4° C leichter Schneefall
Do, 02.02. 11:00 0.4° C leichter Schneefall
Do, 02.02. 10:30 0.5° C leichter Schneefall
Do, 02.02. 10:00 1.1° C leichter Schneeregen
Do, 02.02. 9:30 1.2° C leichter Schneefall
Do, 02.02. 9:00 2.6° C Sprühregen
Ortszeit Relative Feuchte Sichtweite
Do, 02.02. 7:00 84% 35 km
Do, 02.02. 1:00 81% 35 km
Mi, 01.02. 19:00 92% 45 km
Mi, 01.02. 13:00 71% 40 km
Mi, 01.02. 7:00 78% 27 km
Mi, 01.02. 1:00 80% 28 km
Di, 31.01. 19:00 93% 17 km
Di, 31.01. 13:00 89% 8 km
Ortszeit Relative Feuchte Sichtweite
Do, 02.02. 12:00 98% 6 km
Do, 02.02. 11:50 98% -
Do, 02.02. 11:40 98% -
Do, 02.02. 11:30 98% 4.7 km
Do, 02.02. 11:20 98% -
Do, 02.02. 11:10 99% -
Do, 02.02. 11:00 99% 2.5 km
Do, 02.02. 10:30 97% 3.2 km
Do, 02.02. 10:00 94% 7 km
Do, 02.02. 9:30 92% 9 km
Do, 02.02. 9:00 78% 30 km
Ortszeit Niederschlagsmenge Niederschlagsart
Do, 02.02. 7:00 0.0 l/m2 in 12 Std. -
Do, 02.02. 1:00 0.0 l/m2 in 6 Std. -
Mi, 01.02. 19:00 5 l/m2 in 12 Std. Schnee, Regen
Mi, 01.02. 13:00 0.5 l/m2 in 6 Std. Regen
Mi, 01.02. 7:00 0.5 l/m2 in 12 Std. Regen
Mi, 01.02. 1:00 0.5 l/m2 in 6 Std. Regen
Di, 31.01. 19:00 0.8 l/m2 in 12 Std. Regen
Di, 31.01. 13:00 0.1 l/m2 in 6 Std. Regen
Ortszeit Niederschlagsmenge Niederschlagsart
Do, 02.02. 12:00 0.5 l/m2 in 1 Std. Schnee
Do, 02.02. 11:50 keine Meldung -
Do, 02.02. 11:40 keine Meldung -
Do, 02.02. 11:30 0.4 l/m2 in 30 Min -
Do, 02.02. 11:20 keine Meldung -
Do, 02.02. 11:10 keine Meldung -
Do, 02.02. 11:00 0.9 l/m2 in 1 Std. Schnee
Do, 02.02. 10:30 0.4 l/m2 in 30 Min -
Do, 02.02. 10:00 0.2 l/m2 in 1 Std. Schnee, Regen
Do, 02.02. 9:30 0.1 l/m2 in 30 Min -
Do, 02.02. 9:00 <0.05 l/m2 in 1 Std. Regen
Ortszeit Stärke Spitze Richtung
km/h Bft. km/h Grad Sektor
Do, 02.02. 7:00 17 3 35 270° W
Do, 02.02. 1:00 20 4 44 270° W
Mi, 01.02. 19:00 20 4 67 270° W
Mi, 01.02. 13:00 26 4 61 260° W
Mi, 01.02. 7:00 22 4 44 250° W
Mi, 01.02. 1:00 20 4 46 260° W
Di, 31.01. 19:00 22 4 47 240° SW
Di, 31.01. 13:00 28 4 48 240° SW
Ortszeit Stärke Spitze Richtung
km/h Bft. km/h Grad Sektor
Do, 02.02. 12:00 18 3 29 260° W
Do, 02.02. 11:50 18 3 - 260° W
Do, 02.02. 11:40 18 3 - 260° W
Do, 02.02. 11:30 15 3 24 260° W
Do, 02.02. 11:20 15 3 - 260° W
Do, 02.02. 11:10 14 3 - 260° W
Do, 02.02. 11:00 15 3 28 260° W
Do, 02.02. 10:30 14 3 25 260° W
Do, 02.02. 10:00 18 3 40 260° W
Do, 02.02. 9:30 20 4 41 260° W
Do, 02.02. 9:00 24 4 41 280° W
Ortszeit Untergrenze Bedeckung Gattung
total tief tief mittel hoch
Do, 02.02. 7:00 3000 m 8/8 8/8 - - -
Do, 02.02. 1:00 600 m 7/8 7/8 - - -
Mi, 01.02. 19:00 330 m 8/8 8/8 - - -
Mi, 01.02. 13:00 840 m 7/8 7/8 - - -
Mi, 01.02. 7:00 630 m 7/8 7/8 - - -
Mi, 01.02. 1:00 630 m 7/8 7/8 - - -
Di, 31.01. 19:00 270 m 8/8 8/8 - - -
Di, 31.01. 13:00 510 m 7/8 7/8 - - -
Ortszeit Bedeckungsgrad in Achtel und Wolkenuntergrenze
Do, 02.02. 12:00 1(90m) 5(870m) 7(1110m)
Do, 02.02. 11:50 1(90m) 5(870m) 7(1110m)
Do, 02.02. 11:40 7
Do, 02.02. 11:30 3(90m) 4(180m) 7(570m)
Do, 02.02. 11:20 3(90m) 4(180m) 7(570m)
Do, 02.02. 11:10 7
Do, 02.02. 11:00 3(60m) 5(180m) 8(510m)
Do, 02.02. 10:30 3(90m) 4(210m) 7(540m)
Do, 02.02. 10:00 6(690m) 7(960m)
Do, 02.02. 9:30 1(570m)
Do, 02.02. 9:00 3(660m) 6(1050m) 7(1230m)
Ortszeit Luftdruck NN (hPa) Tendenz (hPa in 3 Std.)
Do, 02.02. 7:00 1019 + 0,7
Do, 02.02. 1:00 1017 + 1,0
Mi, 01.02. 19:00 1015 + 2,1
Mi, 01.02. 13:00 1015 0,0
Mi, 01.02. 7:00 1015 - 1,9
Mi, 01.02. 1:00 1018 0,0
Di, 31.01. 19:00 1018 + 0,3
Di, 31.01. 13:00 1019 - 2,3
Ortszeit Luftdruck NN (hPa) Tendenz (hPa in 3 Std.)
Do, 02.02. 12:00 1022 + 1,5
Do, 02.02. 11:50 1022 keine Meldung
Do, 02.02. 11:40 1022 keine Meldung
Do, 02.02. 11:30 1022 + 2,0
Do, 02.02. 11:20 1022 keine Meldung
Do, 02.02. 11:10 1022 keine Meldung
Do, 02.02. 11:00 1022 + 1,9
Do, 02.02. 10:30 1021 + 1,7
Do, 02.02. 10:00 1021 + 1,8
Do, 02.02. 9:30 1021 + 1,7
Do, 02.02. 9:00 1020 + 1,6
Ortszeit Schneehöhe (cm)
Do, 02.02. 7:00 0
Do, 02.02. 1:00 0
Mi, 01.02. 19:00 0
Mi, 01.02. 13:00 0
Mi, 01.02. 7:00 0
Mi, 01.02. 1:00 0
Di, 31.01. 19:00 0
Di, 31.01. 13:00 0
Ortszeit Schneehöhe (cm)
Do, 02.02. 12:00 0
Do, 02.02. 11:50 0
Do, 02.02. 11:40 0
Do, 02.02. 11:30 0
Do, 02.02. 11:20 0
Do, 02.02. 11:10 0
Do, 02.02. 11:00 0
Do, 02.02. 10:30 0
Do, 02.02. 10:00 0
Do, 02.02. 9:30 0
Do, 02.02. 9:00 0
Link zu dieser Seite / Seite empfehlen

Das Wetter in ...